sensor_id;sensor_type;location;lat;lon;timestamp;P1;durP1;ratioP1;P2;durP2;ratioP2
16294;SDS011;8255;49.560;8.244;2022-12-29T00:00:11;1.50;;;1.50;;
16294;SDS011;8255;49.560;8.244;2022-12-29T00:02:40;2.13;;;1.58;;
16294;SDS011;8255;49.560;8.244;2022-12-29T00:05:07;1.60;;;1.50;;
16294;SDS011;8255;49.560;8.244;2022-12-29T00:07:33;1.38;;;1.30;;
16294;SDS011;8255;49.560;8.244;2022-12-29T00:10:01;1.15;;;1.15;;
16294;SDS011;8255;49.560;8.244;2022-12-29T00:12:27;1.50;;;1.50;;
16294;SDS011;8255;49.560;8.244;2022-12-29T00:15:14;1.20;;;1.20;;
16294;SDS011;8255;49.560;8.244;2022-12-29T00:17:58;1.45;;;1.35;;
16294;SDS011;8255;49.560;8.244;2022-12-29T00:20:24;1.50;;;1.40;;
16294;SDS011;8255;49.560;8.244;2022-12-29T00:23:09;2.33;;;1.45;;
16294;SDS011;8255;49.560;8.244;2022-12-29T00:25:54;1.42;;;1.35;;
16294;SDS011;8255;49.560;8.244;2022-12-29T00:28:39;1.85;;;1.30;;
16294;SDS011;8255;49.560;8.244;2022-12-29T00:31:23;1.23;;;1.20;;
16294;SDS011;8255;49.560;8.244;2022-12-29T00:34:08;1.25;;;1.20;;
16294;SDS011;8255;49.560;8.244;2022-12-29T00:36:52;1.20;;;1.20;;
16294;SDS011;8255;49.560;8.244;2022-12-29T00:39:19;2.83;;;1.20;;
16294;SDS011;8255;49.560;8.244;2022-12-29T00:42:18;1.25;;;1.20;;
16294;SDS011;8255;49.560;8.244;2022-12-29T00:45:03;1.90;;;1.55;;
16294;SDS011;8255;49.560;8.244;2022-12-29T00:47:29;2.45;;;1.17;;
16294;SDS011;8255;49.560;8.244;2022-12-29T00:49:55;1.20;;;0.88;;
16294;SDS011;8255;49.560;8.244;2022-12-29T00:52:21;3.42;;;1.33;;
16294;SDS011;8255;49.560;8.244;2022-12-29T00:54:47;1.00;;;1.00;;
16294;SDS011;8255;49.560;8.244;2022-12-29T00:57:14;2.22;;;1.20;;
16294;SDS011;8255;49.560;8.244;2022-12-29T00:59:41;0.95;;;0.95;;
16294;SDS011;8255;49.560;8.244;2022-12-29T01:02:08;0.88;;;0.88;;
16294;SDS011;8255;49.560;8.244;2022-12-29T01:04:34;1.00;;;1.00;;
16294;SDS011;8255;49.560;8.244;2022-12-29T01:07:01;1.05;;;1.05;;
16294;SDS011;8255;49.560;8.244;2022-12-29T01:09:27;1.17;;;1.08;;
16294;SDS011;8255;49.560;8.244;2022-12-29T01:12:11;1.00;;;1.00;;
16294;SDS011;8255;49.560;8.244;2022-12-29T01:14:37;1.35;;;0.93;;
16294;SDS011;8255;49.560;8.244;2022-12-29T01:17:05;0.82;;;0.82;;
16294;SDS011;8255;49.560;8.244;2022-12-29T01:19:32;0.88;;;0.88;;
16294;SDS011;8255;49.560;8.244;2022-12-29T01:21:59;1.00;;;1.00;;
16294;SDS011;8255;49.560;8.244;2022-12-29T01:24:26;0.88;;;0.88;;
16294;SDS011;8255;49.560;8.244;2022-12-29T01:26:53;0.80;;;0.80;;
16294;SDS011;8255;49.560;8.244;2022-12-29T01:29:20;0.95;;;0.93;;
16294;SDS011;8255;49.560;8.244;2022-12-29T01:31:46;1.42;;;1.00;;
16294;SDS011;8255;49.560;8.244;2022-12-29T01:34:15;0.88;;;0.88;;
16294;SDS011;8255;49.560;8.244;2022-12-29T01:36:42;1.40;;;0.90;;
16294;SDS011;8255;49.560;8.244;2022-12-29T01:39:08;1.20;;;1.08;;
16294;SDS011;8255;49.560;8.244;2022-12-29T01:41:35;0.95;;;0.95;;
16294;SDS011;8255;49.560;8.244;2022-12-29T01:44:01;1.00;;;1.00;;
16294;SDS011;8255;49.560;8.244;2022-12-29T01:46:28;1.60;;;1.00;;
16294;SDS011;8255;49.560;8.244;2022-12-29T01:48:58;1.50;;;0.90;;
16294;SDS011;8255;49.560;8.244;2022-12-29T01:51:26;0.80;;;0.80;;
16294;SDS011;8255;49.560;8.244;2022-12-29T01:53:54;1.05;;;1.00;;
16294;SDS011;8255;49.560;8.244;2022-12-29T01:56:22;1.10;;;1.10;;
16294;SDS011;8255;49.560;8.244;2022-12-29T01:58:50;0.80;;;0.80;;
16294;SDS011;8255;49.560;8.244;2022-12-29T02:01:19;1.27;;;1.17;;
16294;SDS011;8255;49.560;8.244;2022-12-29T02:03:45;1.55;;;1.20;;
16294;SDS011;8255;49.560;8.244;2022-12-29T02:06:13;1.10;;;1.10;;
16294;SDS011;8255;49.560;8.244;2022-12-29T02:08:42;1.52;;;1.02;;
16294;SDS011;8255;49.560;8.244;2022-12-29T02:11:10;1.23;;;1.20;;
16294;SDS011;8255;49.560;8.244;2022-12-29T02:13:37;3.50;;;1.10;;
16294;SDS011;8255;49.560;8.244;2022-12-29T02:16:07;1.40;;;1.10;;
16294;SDS011;8255;49.560;8.244;2022-12-29T02:18:39;0.75;;;0.75;;
16294;SDS011;8255;49.560;8.244;2022-12-29T02:26:44;0.90;;;0.90;;
16294;SDS011;8255;49.560;8.244;2022-12-29T02:29:21;1.67;;;1.08;;
16294;SDS011;8255;49.560;8.244;2022-12-29T02:31:54;1.20;;;1.10;;
16294;SDS011;8255;49.560;8.244;2022-12-29T02:34:24;0.90;;;0.90;;
16294;SDS011;8255;49.560;8.244;2022-12-29T02:36:56;2.15;;;1.00;;
16294;SDS011;8255;49.560;8.244;2022-12-29T02:39:27;1.17;;;1.17;;
16294;SDS011;8255;49.560;8.244;2022-12-29T02:42:01;1.38;;;1.00;;
16294;SDS011;8255;49.560;8.244;2022-12-29T02:44:32;1.55;;;1.10;;
16294;SDS011;8255;49.560;8.244;2022-12-29T02:47:03;1.23;;;0.95;;
16294;SDS011;8255;49.560;8.244;2022-12-29T02:49:33;1.27;;;1.20;;
16294;SDS011;8255;49.560;8.244;2022-12-29T02:52:02;0.98;;;0.98;;
16294;SDS011;8255;49.560;8.244;2022-12-29T02:54:29;1.98;;;1.25;;
16294;SDS011;8255;49.560;8.244;2022-12-29T02:57:09;1.02;;;1.02;;
16294;SDS011;8255;49.560;8.244;2022-12-29T02:59:36;1.27;;;1.20;;
16294;SDS011;8255;49.560;8.244;2022-12-29T03:02:11;1.15;;;1.15;;
16294;SDS011;8255;49.560;8.244;2022-12-29T03:07:29;1.60;;;1.48;;
16294;SDS011;8255;49.560;8.244;2022-12-29T03:09:59;1.00;;;1.00;;
16294;SDS011;8255;49.560;8.244;2022-12-29T03:12:29;1.67;;;1.30;;
16294;SDS011;8255;49.560;8.244;2022-12-29T03:15:15;1.45;;;1.20;;
16294;SDS011;8255;49.560;8.244;2022-12-29T03:18:05;1.40;;;1.30;;
16294;SDS011;8255;49.560;8.244;2022-12-29T03:20:34;1.92;;;1.30;;
16294;SDS011;8255;49.560;8.244;2022-12-29T03:23:04;1.88;;;1.17;;
16294;SDS011;8255;49.560;8.244;2022-12-29T03:25:35;1.38;;;1.30;;
16294;SDS011;8255;49.560;8.244;2022-12-29T03:28:07;3.00;;;1.40;;
16294;SDS011;8255;49.560;8.244;2022-12-29T03:30:39;1.90;;;1.20;;
16294;SDS011;8255;49.560;8.244;2022-12-29T03:33:09;2.85;;;1.40;;
16294;SDS011;8255;49.560;8.244;2022-12-29T03:35:37;2.03;;;1.13;;
16294;SDS011;8255;49.560;8.244;2022-12-29T03:38:09;1.65;;;1.35;;
16294;SDS011;8255;49.560;8.244;2022-12-29T03:40:37;1.75;;;1.13;;
16294;SDS011;8255;49.560;8.244;2022-12-29T03:43:04;1.40;;;1.30;;
16294;SDS011;8255;49.560;8.244;2022-12-29T03:45:33;1.40;;;1.30;;
16294;SDS011;8255;49.560;8.244;2022-12-29T03:47:59;1.77;;;1.38;;
16294;SDS011;8255;49.560;8.244;2022-12-29T03:50:28;1.45;;;1.30;;
16294;SDS011;8255;49.560;8.244;2022-12-29T03:52:54;5.10;;;1.20;;
16294;SDS011;8255;49.560;8.244;2022-12-29T03:55:21;1.10;;;1.10;;
16294;SDS011;8255;49.560;8.244;2022-12-29T03:57:48;1.55;;;1.02;;
16294;SDS011;8255;49.560;8.244;2022-12-29T04:00:24;1.15;;;1.15;;
16294;SDS011;8255;49.560;8.244;2022-12-29T04:02:50;1.40;;;1.30;;
16294;SDS011;8255;49.560;8.244;2022-12-29T04:05:19;1.58;;;1.48;;
16294;SDS011;8255;49.560;8.244;2022-12-29T04:07:48;5.25;;;1.45;;
16294;SDS011;8255;49.560;8.244;2022-12-29T04:10:15;1.10;;;1.10;;
16294;SDS011;8255;49.560;8.244;2022-12-29T04:12:42;2.30;;;1.27;;
16294;SDS011;8255;49.560;8.244;2022-12-29T04:15:11;1.33;;;1.25;;
16294;SDS011;8255;49.560;8.244;2022-12-29T04:17:37;1.58;;;1.20;;
16294;SDS011;8255;49.560;8.244;2022-12-29T04:20:05;1.48;;;1.33;;
16294;SDS011;8255;49.560;8.244;2022-12-29T04:22:57;1.15;;;1.15;;
16294;SDS011;8255;49.560;8.244;2022-12-29T04:25:24;1.17;;;1.17;;
16294;SDS011;8255;49.560;8.244;2022-12-29T04:27:50;1.75;;;1.30;;
16294;SDS011;8255;49.560;8.244;2022-12-29T04:30:36;1.13;;;1.13;;
16294;SDS011;8255;49.560;8.244;2022-12-29T04:33:08;1.10;;;1.10;;
16294;SDS011;8255;49.560;8.244;2022-12-29T04:35:35;2.10;;;1.08;;
16294;SDS011;8255;49.560;8.244;2022-12-29T04:38:03;1.30;;;1.30;;
16294;SDS011;8255;49.560;8.244;2022-12-29T04:40:29;1.42;;;1.20;;
16294;SDS011;8255;49.560;8.244;2022-12-29T04:42:56;1.00;;;1.00;;
16294;SDS011;8255;49.560;8.244;2022-12-29T04:45:23;1.05;;;1.05;;
16294;SDS011;8255;49.560;8.244;2022-12-29T04:47:58;2.92;;;1.35;;
16294;SDS011;8255;49.560;8.244;2022-12-29T04:50:56;2.05;;;1.40;;
16294;SDS011;8255;49.560;8.244;2022-12-29T04:53:26;1.38;;;1.27;;
16294;SDS011;8255;49.560;8.244;2022-12-29T04:55:52;1.10;;;1.10;;
16294;SDS011;8255;49.560;8.244;2022-12-29T04:58:20;0.93;;;0.93;;
16294;SDS011;8255;49.560;8.244;2022-12-29T05:00:47;1.90;;;1.05;;
16294;SDS011;8255;49.560;8.244;2022-12-29T05:03:13;1.05;;;1.05;;
16294;SDS011;8255;49.560;8.244;2022-12-29T05:05:41;1.58;;;1.20;;
16294;SDS011;8255;49.560;8.244;2022-12-29T05:08:08;1.40;;;1.30;;
16294;SDS011;8255;49.560;8.244;2022-12-29T05:10:36;2.33;;;1.67;;
16294;SDS011;8255;49.560;8.244;2022-12-29T05:13:07;1.40;;;1.30;;
16294;SDS011;8255;49.560;8.244;2022-12-29T05:15:33;0.90;;;0.90;;
16294;SDS011;8255;49.560;8.244;2022-12-29T05:18:00;1.17;;;1.17;;
16294;SDS011;8255;49.560;8.244;2022-12-29T05:20:27;1.50;;;1.30;;
16294;SDS011;8255;49.560;8.244;2022-12-29T05:22:55;1.20;;;1.20;;
16294;SDS011;8255;49.560;8.244;2022-12-29T05:25:22;1.30;;;1.20;;
16294;SDS011;8255;49.560;8.244;2022-12-29T05:28:00;2.83;;;1.20;;
16294;SDS011;8255;49.560;8.244;2022-12-29T05:30:48;1.40;;;1.00;;
16294;SDS011;8255;49.560;8.244;2022-12-29T05:33:14;1.75;;;1.10;;
16294;SDS011;8255;49.560;8.244;2022-12-29T05:35:41;1.60;;;1.45;;
16294;SDS011;8255;49.560;8.244;2022-12-29T05:38:10;1.15;;;1.05;;
16294;SDS011;8255;49.560;8.244;2022-12-29T05:40:37;1.67;;;1.58;;
16294;SDS011;8255;49.560;8.244;2022-12-29T05:43:13;1.35;;;1.10;;
16294;SDS011;8255;49.560;8.244;2022-12-29T05:45:57;1.85;;;1.40;;
16294;SDS011;8255;49.560;8.244;2022-12-29T05:48:45;1.92;;;1.40;;
16294;SDS011;8255;49.560;8.244;2022-12-29T05:51:30;1.52;;;1.40;;
16294;SDS011;8255;49.560;8.244;2022-12-29T05:53:57;1.42;;;1.33;;
16294;SDS011;8255;49.560;8.244;2022-12-29T05:56:23;1.80;;;1.70;;
16294;SDS011;8255;49.560;8.244;2022-12-29T05:58:57;1.55;;;1.40;;
16294;SDS011;8255;49.560;8.244;2022-12-29T06:01:24;3.42;;;1.50;;
16294;SDS011;8255;49.560;8.244;2022-12-29T06:03:50;2.50;;;1.55;;
16294;SDS011;8255;49.560;8.244;2022-12-29T06:06:19;1.35;;;1.25;;
16294;SDS011;8255;49.560;8.244;2022-12-29T06:08:45;3.65;;;1.60;;
16294;SDS011;8255;49.560;8.244;2022-12-29T06:11:12;1.60;;;1.50;;
16294;SDS011;8255;49.560;8.244;2022-12-29T06:13:43;1.77;;;1.50;;
16294;SDS011;8255;49.560;8.244;2022-12-29T06:16:12;1.65;;;1.48;;
16294;SDS011;8255;49.560;8.244;2022-12-29T06:18:39;1.40;;;1.30;;
16294;SDS011;8255;49.560;8.244;2022-12-29T06:21:07;1.40;;;1.30;;
16294;SDS011;8255;49.560;8.244;2022-12-29T06:23:34;1.60;;;1.50;;
16294;SDS011;8255;49.560;8.244;2022-12-29T06:26:02;1.73;;;1.63;;
16294;SDS011;8255;49.560;8.244;2022-12-29T06:28:29;1.42;;;1.30;;
16294;SDS011;8255;49.560;8.244;2022-12-29T06:30:55;2.03;;;1.65;;
16294;SDS011;8255;49.560;8.244;2022-12-29T06:33:23;3.45;;;1.30;;
16294;SDS011;8255;49.560;8.244;2022-12-29T06:35:50;1.42;;;1.33;;
16294;SDS011;8255;49.560;8.244;2022-12-29T06:38:16;2.88;;;1.88;;
16294;SDS011;8255;49.560;8.244;2022-12-29T06:40:43;1.98;;;1.80;;
16294;SDS011;8255;49.560;8.244;2022-12-29T06:43:18;1.73;;;1.58;;
16294;SDS011;8255;49.560;8.244;2022-12-29T06:46:11;2.47;;;1.65;;
16294;SDS011;8255;49.560;8.244;2022-12-29T06:48:39;3.67;;;2.10;;
16294;SDS011;8255;49.560;8.244;2022-12-29T06:51:07;2.10;;;1.73;;
16294;SDS011;8255;49.560;8.244;2022-12-29T06:53:33;2.40;;;1.80;;
16294;SDS011;8255;49.560;8.244;2022-12-29T06:56:00;5.32;;;1.50;;
16294;SDS011;8255;49.560;8.244;2022-12-29T06:58:26;3.22;;;1.70;;
16294;SDS011;8255;49.560;8.244;2022-12-29T07:00:52;1.55;;;1.48;;
16294;SDS011;8255;49.560;8.244;2022-12-29T07:03:19;1.80;;;1.42;;
16294;SDS011;8255;49.560;8.244;2022-12-29T07:05:46;2.03;;;1.80;;
16294;SDS011;8255;49.560;8.244;2022-12-29T07:08:13;1.73;;;1.60;;
16294;SDS011;8255;49.560;8.244;2022-12-29T07:10:39;2.53;;;1.80;;
16294;SDS011;8255;49.560;8.244;2022-12-29T07:13:05;1.92;;;1.50;;
16294;SDS011;8255;49.560;8.244;2022-12-29T07:15:33;3.65;;;1.60;;
16294;SDS011;8255;49.560;8.244;2022-12-29T07:17:59;3.20;;;1.60;;
16294;SDS011;8255;49.560;8.244;2022-12-29T07:20:25;1.70;;;1.60;;
16294;SDS011;8255;49.560;8.244;2022-12-29T07:22:53;1.73;;;1.63;;
16294;SDS011;8255;49.560;8.244;2022-12-29T07:25:19;3.60;;;2.17;;
16294;SDS011;8255;49.560;8.244;2022-12-29T07:27:46;2.08;;;1.80;;
16294;SDS011;8255;49.560;8.244;2022-12-29T07:30:12;3.05;;;1.80;;
16294;SDS011;8255;49.560;8.244;2022-12-29T07:32:39;1.77;;;1.67;;
16294;SDS011;8255;49.560;8.244;2022-12-29T07:35:05;4.10;;;2.10;;
16294;SDS011;8255;49.560;8.244;2022-12-29T07:37:32;1.50;;;1.50;;
16294;SDS011;8255;49.560;8.244;2022-12-29T07:40:00;2.63;;;1.58;;
16294;SDS011;8255;49.560;8.244;2022-12-29T07:42:28;1.90;;;1.80;;
16294;SDS011;8255;49.560;8.244;2022-12-29T07:44:57;1.63;;;1.52;;
16294;SDS011;8255;49.560;8.244;2022-12-29T07:47:33;1.70;;;1.60;;
16294;SDS011;8255;49.560;8.244;2022-12-29T07:50:00;1.98;;;1.88;;
16294;SDS011;8255;49.560;8.244;2022-12-29T07:52:26;3.83;;;2.10;;
16294;SDS011;8255;49.560;8.244;2022-12-29T07:54:52;2.83;;;2.10;;
16294;SDS011;8255;49.560;8.244;2022-12-29T07:57:20;4.45;;;1.77;;
16294;SDS011;8255;49.560;8.244;2022-12-29T07:59:46;2.10;;;2.00;;
16294;SDS011;8255;49.560;8.244;2022-12-29T08:02:13;1.75;;;1.65;;
16294;SDS011;8255;49.560;8.244;2022-12-29T08:04:39;3.90;;;1.65;;
16294;SDS011;8255;49.560;8.244;2022-12-29T08:07:05;2.13;;;1.67;;
16294;SDS011;8255;49.560;8.244;2022-12-29T08:09:32;5.72;;;1.80;;
16294;SDS011;8255;49.560;8.244;2022-12-29T08:11:58;3.53;;;2.00;;
16294;SDS011;8255;49.560;8.244;2022-12-29T08:14:26;3.83;;;2.03;;
16294;SDS011;8255;49.560;8.244;2022-12-29T08:16:52;1.85;;;1.75;;
16294;SDS011;8255;49.560;8.244;2022-12-29T08:19:18;3.25;;;1.60;;
16294;SDS011;8255;49.560;8.244;2022-12-29T08:21:45;1.88;;;1.77;;
16294;SDS011;8255;49.560;8.244;2022-12-29T08:24:11;1.83;;;1.75;;
16294;SDS011;8255;49.560;8.244;2022-12-29T08:26:37;2.20;;;2.00;;
16294;SDS011;8255;49.560;8.244;2022-12-29T08:29:04;2.10;;;1.90;;
16294;SDS011;8255;49.560;8.244;2022-12-29T08:31:31;2.33;;;2.00;;
16294;SDS011;8255;49.560;8.244;2022-12-29T08:33:58;1.67;;;1.50;;
16294;SDS011;8255;49.560;8.244;2022-12-29T08:36:25;1.73;;;1.63;;
16294;SDS011;8255;49.560;8.244;2022-12-29T08:38:51;2.47;;;2.20;;
16294;SDS011;8255;49.560;8.244;2022-12-29T08:41:17;2.00;;;1.90;;
16294;SDS011;8255;49.560;8.244;2022-12-29T08:43:45;1.52;;;1.48;;
16294;SDS011;8255;49.560;8.244;2022-12-29T08:46:11;2.30;;;2.03;;
16294;SDS011;8255;49.560;8.244;2022-12-29T08:48:39;1.75;;;1.65;;
16294;SDS011;8255;49.560;8.244;2022-12-29T08:51:05;1.58;;;1.48;;
16294;SDS011;8255;49.560;8.244;2022-12-29T08:53:32;2.85;;;1.85;;
16294;SDS011;8255;49.560;8.244;2022-12-29T08:55:59;2.22;;;1.98;;
16294;SDS011;8255;49.560;8.244;2022-12-29T08:58:26;1.98;;;1.70;;
16294;SDS011;8255;49.560;8.244;2022-12-29T09:00:53;2.35;;;2.15;;
16294;SDS011;8255;49.560;8.244;2022-12-29T09:03:19;2.13;;;1.83;;
16294;SDS011;8255;49.560;8.244;2022-12-29T09:05:48;1.90;;;1.80;;
16294;SDS011;8255;49.560;8.244;2022-12-29T09:08:15;2.53;;;1.67;;
16294;SDS011;8255;49.560;8.244;2022-12-29T09:10:41;2.45;;;2.20;;
16294;SDS011;8255;49.560;8.244;2022-12-29T09:13:08;2.35;;;1.80;;
16294;SDS011;8255;49.560;8.244;2022-12-29T09:15:34;2.10;;;2.00;;
16294;SDS011;8255;49.560;8.244;2022-12-29T09:18:00;1.90;;;1.80;;
16294;SDS011;8255;49.560;8.244;2022-12-29T09:20:27;2.50;;;2.30;;
16294;SDS011;8255;49.560;8.244;2022-12-29T09:22:54;2.45;;;2.25;;
16294;SDS011;8255;49.560;8.244;2022-12-29T09:25:21;2.58;;;1.50;;
16294;SDS011;8255;49.560;8.244;2022-12-29T09:27:49;5.78;;;1.83;;
16294;SDS011;8255;49.560;8.244;2022-12-29T09:30:17;2.28;;;1.65;;
16294;SDS011;8255;49.560;8.244;2022-12-29T09:32:44;2.45;;;1.75;;
16294;SDS011;8255;49.560;8.244;2022-12-29T09:35:10;2.78;;;2.58;;
16294;SDS011;8255;49.560;8.244;2022-12-29T09:37:36;1.98;;;1.88;;
16294;SDS011;8255;49.560;8.244;2022-12-29T09:40:05;4.65;;;2.08;;
16294;SDS011;8255;49.560;8.244;2022-12-29T09:42:32;2.60;;;2.40;;
16294;SDS011;8255;49.560;8.244;2022-12-29T09:45:04;1.73;;;1.63;;
16294;SDS011;8255;49.560;8.244;2022-12-29T09:47:33;1.90;;;1.80;;
16294;SDS011;8255;49.560;8.244;2022-12-29T09:50:00;2.20;;;1.98;;
16294;SDS011;8255;49.560;8.244;2022-12-29T09:52:29;1.65;;;1.60;;
16294;SDS011;8255;49.560;8.244;2022-12-29T09:54:56;1.80;;;1.70;;
16294;SDS011;8255;49.560;8.244;2022-12-29T09:57:26;1.60;;;1.50;;
16294;SDS011;8255;49.560;8.244;2022-12-29T09:59:55;4.28;;;2.00;;
16294;SDS011;8255;49.560;8.244;2022-12-29T10:02:32;1.80;;;1.70;;
16294;SDS011;8255;49.560;8.244;2022-12-29T10:05:00;1.92;;;1.70;;
16294;SDS011;8255;49.560;8.244;2022-12-29T10:07:29;1.73;;;1.40;;
16294;SDS011;8255;49.560;8.244;2022-12-29T10:09:59;1.77;;;1.67;;
16294;SDS011;8255;49.560;8.244;2022-12-29T10:12:30;2.50;;;1.77;;
16294;SDS011;8255;49.560;8.244;2022-12-29T10:15:02;1.88;;;1.77;;
16294;SDS011;8255;49.560;8.244;2022-12-29T10:17:32;2.00;;;1.58;;
16294;SDS011;8255;49.560;8.244;2022-12-29T10:20:04;2.15;;;1.85;;
16294;SDS011;8255;49.560;8.244;2022-12-29T10:22:38;1.92;;;1.83;;
16294;SDS011;8255;49.560;8.244;2022-12-29T10:25:10;1.90;;;1.80;;
16294;SDS011;8255;49.560;8.244;2022-12-29T10:27:39;1.92;;;1.83;;
16294;SDS011;8255;49.560;8.244;2022-12-29T10:30:10;1.70;;;1.60;;
16294;SDS011;8255;49.560;8.244;2022-12-29T10:32:37;2.20;;;2.00;;
16294;SDS011;8255;49.560;8.244;2022-12-29T10:35:05;1.95;;;1.77;;
16294;SDS011;8255;49.560;8.244;2022-12-29T10:37:38;2.58;;;1.70;;
16294;SDS011;8255;49.560;8.244;2022-12-29T10:40:14;1.88;;;1.77;;
16294;SDS011;8255;49.560;8.244;2022-12-29T10:42:43;2.05;;;1.85;;
16294;SDS011;8255;49.560;8.244;2022-12-29T10:45:11;1.92;;;1.70;;
16294;SDS011;8255;49.560;8.244;2022-12-29T10:47:40;1.83;;;1.73;;
16294;SDS011;8255;49.560;8.244;2022-12-29T10:50:11;1.65;;;1.55;;
16294;SDS011;8255;49.560;8.244;2022-12-29T10:52:38;1.60;;;1.50;;
16294;SDS011;8255;49.560;8.244;2022-12-29T10:55:08;2.30;;;2.10;;
16294;SDS011;8255;49.560;8.244;2022-12-29T10:57:39;1.83;;;1.73;;
16294;SDS011;8255;49.560;8.244;2022-12-29T11:00:12;1.55;;;1.45;;
16294;SDS011;8255;49.560;8.244;2022-12-29T11:02:46;1.60;;;1.55;;
16294;SDS011;8255;49.560;8.244;2022-12-29T11:05:19;1.42;;;1.42;;
16294;SDS011;8255;49.560;8.244;2022-12-29T11:07:47;2.72;;;1.58;;
16294;SDS011;8255;49.560;8.244;2022-12-29T11:10:18;1.70;;;1.60;;
16294;SDS011;8255;49.560;8.244;2022-12-29T11:12:54;1.50;;;1.40;;
16294;SDS011;8255;49.560;8.244;2022-12-29T11:15:22;1.52;;;1.23;;
16294;SDS011;8255;49.560;8.244;2022-12-29T11:17:49;3.50;;;1.40;;
16294;SDS011;8255;49.560;8.244;2022-12-29T11:20:19;1.60;;;1.00;;
16294;SDS011;8255;49.560;8.244;2022-12-29T11:22:52;1.20;;;1.20;;
16294;SDS011;8255;49.560;8.244;2022-12-29T11:25:18;1.35;;;1.10;;
16294;SDS011;8255;49.560;8.244;2022-12-29T11:27:51;1.05;;;1.05;;
16294;SDS011;8255;49.560;8.244;2022-12-29T11:30:23;1.30;;;1.20;;
16294;SDS011;8255;49.560;8.244;2022-12-29T11:32:50;1.10;;;1.10;;
16294;SDS011;8255;49.560;8.244;2022-12-29T11:35:18;2.22;;;1.25;;
16294;SDS011;8255;49.560;8.244;2022-12-29T11:37:55;1.48;;;1.38;;
16294;SDS011;8255;49.560;8.244;2022-12-29T11:40:22;1.08;;;1.08;;
16294;SDS011;8255;49.560;8.244;2022-12-29T11:42:49;1.40;;;1.30;;
16294;SDS011;8255;49.560;8.244;2022-12-29T11:45:17;1.10;;;1.10;;
16294;SDS011;8255;49.560;8.244;2022-12-29T11:47:46;1.10;;;1.10;;
16294;SDS011;8255;49.560;8.244;2022-12-29T11:50:16;1.35;;;1.25;;
16294;SDS011;8255;49.560;8.244;2022-12-29T11:52:43;1.45;;;1.35;;
16294;SDS011;8255;49.560;8.244;2022-12-29T11:55:16;1.85;;;1.10;;
16294;SDS011;8255;49.560;8.244;2022-12-29T11:57:43;1.15;;;1.10;;
16294;SDS011;8255;49.560;8.244;2022-12-29T12:00:14;2.70;;;1.27;;
16294;SDS011;8255;49.560;8.244;2022-12-29T12:02:42;1.45;;;1.17;;
16294;SDS011;8255;49.560;8.244;2022-12-29T12:05:13;1.48;;;1.40;;
16294;SDS011;8255;49.560;8.244;2022-12-29T12:07:41;1.33;;;1.20;;
16294;SDS011;8255;49.560;8.244;2022-12-29T12:10:11;4.00;;;1.48;;
16294;SDS011;8255;49.560;8.244;2022-12-29T12:12:39;1.95;;;1.80;;
16294;SDS011;8255;49.560;8.244;2022-12-29T12:15:08;2.00;;;1.88;;
16294;SDS011;8255;49.560;8.244;2022-12-29T12:17:50;3.75;;;2.50;;
16294;SDS011;8255;49.560;8.244;2022-12-29T12:20:19;3.30;;;2.90;;
16294;SDS011;8255;49.560;8.244;2022-12-29T12:22:50;2.40;;;2.20;;
16294;SDS011;8255;49.560;8.244;2022-12-29T12:25:19;4.30;;;3.10;;
16294;SDS011;8255;49.560;8.244;2022-12-29T12:27:48;4.40;;;4.07;;
16294;SDS011;8255;49.560;8.244;2022-12-29T12:30:15;3.58;;;1.58;;
16294;SDS011;8255;49.560;8.244;2022-12-29T12:32:45;1.92;;;1.83;;
16294;SDS011;8255;49.560;8.244;2022-12-29T12:35:12;2.40;;;2.13;;
16294;SDS011;8255;49.560;8.244;2022-12-29T12:37:50;1.50;;;1.40;;
16294;SDS011;8255;49.560;8.244;2022-12-29T12:40:29;1.75;;;1.63;;
16294;SDS011;8255;49.560;8.244;2022-12-29T12:43:03;2.47;;;1.70;;
16294;SDS011;8255;49.560;8.244;2022-12-29T12:45:37;1.50;;;1.23;;
16294;SDS011;8255;49.560;8.244;2022-12-29T12:48:11;1.60;;;1.27;;
16294;SDS011;8255;49.560;8.244;2022-12-29T12:50:44;2.50;;;1.70;;
16294;SDS011;8255;49.560;8.244;2022-12-29T12:53:18;2.35;;;1.80;;
16294;SDS011;8255;49.560;8.244;2022-12-29T12:55:49;1.45;;;1.15;;
16294;SDS011;8255;49.560;8.244;2022-12-29T12:58:20;1.95;;;1.73;;
16294;SDS011;8255;49.560;8.244;2022-12-29T13:00:53;1.77;;;1.67;;
16294;SDS011;8255;49.560;8.244;2022-12-29T13:03:25;1.40;;;1.25;;
16294;SDS011;8255;49.560;8.244;2022-12-29T13:06:05;1.65;;;1.50;;
16294;SDS011;8255;49.560;8.244;2022-12-29T13:08:44;1.40;;;1.20;;
16294;SDS011;8255;49.560;8.244;2022-12-29T13:11:15;1.75;;;1.20;;
16294;SDS011;8255;49.560;8.244;2022-12-29T13:13:47;1.00;;;1.00;;
16294;SDS011;8255;49.560;8.244;2022-12-29T13:16:17;1.25;;;1.10;;
16294;SDS011;8255;49.560;8.244;2022-12-29T13:18:51;1.67;;;1.45;;
16294;SDS011;8255;49.560;8.244;2022-12-29T13:21:22;2.05;;;1.15;;
16294;SDS011;8255;49.560;8.244;2022-12-29T13:23:54;1.30;;;1.15;;
16294;SDS011;8255;49.560;8.244;2022-12-29T13:26:22;0.90;;;0.82;;
16294;SDS011;8255;49.560;8.244;2022-12-29T13:28:52;1.00;;;1.00;;
16294;SDS011;8255;49.560;8.244;2022-12-29T13:31:24;0.80;;;0.80;;
16294;SDS011;8255;49.560;8.244;2022-12-29T13:33:55;3.55;;;1.38;;
16294;SDS011;8255;49.560;8.244;2022-12-29T13:36:26;1.52;;;1.42;;
16294;SDS011;8255;49.560;8.244;2022-12-29T13:38:56;2.28;;;1.13;;
16294;SDS011;8255;49.560;8.244;2022-12-29T13:41:25;1.17;;;1.00;;
16294;SDS011;8255;49.560;8.244;2022-12-29T13:43:53;2.53;;;1.00;;
16294;SDS011;8255;49.560;8.244;2022-12-29T13:46:21;0.93;;;0.93;;
16294;SDS011;8255;49.560;8.244;2022-12-29T13:48:50;1.23;;;1.00;;
16294;SDS011;8255;49.560;8.244;2022-12-29T13:51:17;1.08;;;0.98;;
16294;SDS011;8255;49.560;8.244;2022-12-29T13:53:52;1.05;;;1.05;;
16294;SDS011;8255;49.560;8.244;2022-12-29T13:56:22;0.98;;;0.98;;
16294;SDS011;8255;49.560;8.244;2022-12-29T13:58:52;2.00;;;1.08;;
16294;SDS011;8255;49.560;8.244;2022-12-29T14:01:20;1.55;;;0.90;;
16294;SDS011;8255;49.560;8.244;2022-12-29T14:03:48;1.23;;;0.98;;
16294;SDS011;8255;49.560;8.244;2022-12-29T14:06:17;0.93;;;0.93;;
16294;SDS011;8255;49.560;8.244;2022-12-29T14:08:46;1.27;;;1.00;;
16294;SDS011;8255;49.560;8.244;2022-12-29T14:11:14;1.08;;;1.00;;
16294;SDS011;8255;49.560;8.244;2022-12-29T14:13:42;2.67;;;1.48;;
16294;SDS011;8255;49.560;8.244;2022-12-29T14:16:10;4.00;;;1.10;;
16294;SDS011;8255;49.560;8.244;2022-12-29T14:18:47;1.90;;;0.90;;
16294;SDS011;8255;49.560;8.244;2022-12-29T14:21:17;2.25;;;1.20;;
16294;SDS011;8255;49.560;8.244;2022-12-29T14:23:45;1.30;;;1.10;;
16294;SDS011;8255;49.560;8.244;2022-12-29T14:26:13;2.50;;;1.45;;
16294;SDS011;8255;49.560;8.244;2022-12-29T14:28:40;4.22;;;1.20;;
16294;SDS011;8255;49.560;8.244;2022-12-29T14:36:34;5.03;;;2.90;;
16294;SDS011;8255;49.560;8.244;2022-12-29T14:39:01;3.50;;;1.70;;
16294;SDS011;8255;49.560;8.244;2022-12-29T14:41:29;1.10;;;1.00;;
16294;SDS011;8255;49.560;8.244;2022-12-29T14:46:42;2.45;;;1.67;;
16294;SDS011;8255;49.560;8.244;2022-12-29T14:49:08;2.33;;;2.13;;
16294;SDS011;8255;49.560;8.244;2022-12-29T14:51:43;1.67;;;1.50;;
16294;SDS011;8255;49.560;8.244;2022-12-29T14:56:56;1.67;;;1.23;;
16294;SDS011;8255;49.560;8.244;2022-12-29T14:59:23;2.30;;;1.85;;
16294;SDS011;8255;49.560;8.244;2022-12-29T15:01:51;2.28;;;1.33;;
16294;SDS011;8255;49.560;8.244;2022-12-29T15:04:19;2.05;;;1.20;;
16294;SDS011;8255;49.560;8.244;2022-12-29T15:06:48;1.80;;;1.08;;
16294;SDS011;8255;49.560;8.244;2022-12-29T15:09:22;1.45;;;1.10;;
16294;SDS011;8255;49.560;8.244;2022-12-29T15:11:51;2.90;;;1.65;;
16294;SDS011;8255;49.560;8.244;2022-12-29T15:14:28;2.70;;;1.35;;
16294;SDS011;8255;49.560;8.244;2022-12-29T15:16:54;2.13;;;1.50;;
16294;SDS011;8255;49.560;8.244;2022-12-29T15:19:21;2.20;;;1.00;;
16294;SDS011;8255;49.560;8.244;2022-12-29T15:21:49;1.38;;;1.15;;
16294;SDS011;8255;49.560;8.244;2022-12-29T15:24:15;2.67;;;1.17;;
16294;SDS011;8255;49.560;8.244;2022-12-29T15:26:44;3.85;;;1.35;;
16294;SDS011;8255;49.560;8.244;2022-12-29T15:31:52;2.13;;;0.90;;
16294;SDS011;8255;49.560;8.244;2022-12-29T15:34:20;1.65;;;1.02;;
16294;SDS011;8255;49.560;8.244;2022-12-29T15:36:47;5.13;;;1.27;;